createdAt,value
2022-10-01T03:59:12.742Z,462.00
2022-10-01T04:00:13.952Z,440.00
2022-10-01T04:01:13.086Z,442.00
2022-10-01T04:02:13.310Z,439.00
2022-10-01T04:03:14.322Z,441.00
2022-10-01T04:04:13.409Z,440.00
2022-10-01T04:05:15.144Z,439.00
2022-10-01T04:06:13.612Z,438.00
2022-10-01T04:07:13.779Z,439.00
2022-10-01T04:08:13.879Z,437.00
2022-10-01T04:09:15.116Z,435.00
2022-10-01T04:10:14.174Z,437.00
2022-10-01T04:11:15.887Z,437.00
2022-10-01T04:12:14.459Z,435.00
2022-10-01T04:13:14.592Z,435.00
2022-10-01T04:14:14.738Z,435.00
2022-10-01T04:15:14.901Z,435.00
2022-10-01T04:16:16.751Z,436.00
2022-10-01T04:17:16.848Z,437.00
2022-10-01T04:18:15.308Z,438.00
2022-10-01T04:19:16.528Z,437.00
2022-10-01T04:20:17.565Z,437.00
2022-10-01T04:21:15.747Z,435.00
2022-10-01T04:22:17.477Z,435.00
2022-10-01T04:23:16.029Z,438.00
2022-10-01T04:24:16.106Z,439.00
2022-10-01T04:25:16.255Z,442.00
2022-10-01T04:26:16.387Z,444.00
2022-10-01T04:27:18.109Z,444.00
2022-10-01T04:28:18.396Z,443.00
2022-10-01T04:29:18.556Z,441.00
2022-10-01T04:30:16.985Z,438.00
2022-10-01T04:31:18.254Z,437.00
2022-10-01T04:32:17.263Z,437.00
2022-10-01T04:33:17.386Z,436.00
2022-10-01T04:34:19.135Z,436.00
2022-10-01T04:35:17.668Z,437.00
2022-10-01T04:36:19.405Z,443.00
2022-10-01T04:37:17.935Z,443.00
2022-10-01T04:38:19.670Z,444.00
2022-10-01T04:39:18.246Z,443.00
2022-10-01T04:40:19.964Z,440.00
2022-10-01T04:41:18.488Z,438.00
2022-10-01T04:42:18.616Z,433.00
2022-10-01T04:43:18.754Z,432.00
2022-10-01T04:44:19.974Z,432.00
2022-10-01T04:45:18.976Z,433.00
2022-10-01T04:46:19.195Z,433.00
2022-10-01T04:47:19.263Z,432.00
2022-10-01T04:48:20.995Z,433.00
2022-10-01T04:49:19.504Z,431.00
2022-10-01T04:50:20.723Z,431.00
2022-10-01T04:51:19.782Z,433.00
2022-10-01T04:52:19.925Z,432.00
2022-10-01T04:53:21.663Z,431.00
2022-10-01T04:54:20.202Z,433.00
2022-10-01T04:55:20.342Z,434.00
2022-10-01T04:56:20.473Z,433.00
2022-10-01T04:57:20.592Z,433.00
2022-10-01T04:58:22.313Z,432.00
2022-10-01T04:59:20.873Z,433.00
2022-10-01T05:00:21.016Z,434.00
2022-10-01T05:01:21.236Z,433.00
2022-10-01T05:02:22.933Z,432.00
2022-10-01T05:03:21.452Z,435.00
2022-10-01T05:04:21.572Z,435.00
2022-10-01T05:05:21.691Z,435.00
2022-10-01T05:06:21.847Z,433.00
2022-10-01T05:07:25.000Z,432.00
2022-10-01T05:08:22.113Z,432.00
2022-10-01T05:09:22.238Z,433.00
2022-10-01T05:10:22.380Z,434.00
2022-10-01T05:11:24.090Z,434.00
2022-10-01T05:12:24.736Z,433.00
2022-10-01T05:13:22.876Z,432.00
2022-10-01T05:14:22.907Z,434.00
2022-10-01T05:15:23.970Z,434.00
2022-10-01T05:16:23.196Z,432.00
2022-10-01T05:17:24.882Z,431.00
2022-10-01T05:18:23.440Z,434.00
2022-10-01T05:19:26.308Z,432.00
2022-10-01T05:20:23.650Z,431.00
2022-10-01T05:21:24.799Z,434.00
2022-10-01T05:22:25.518Z,435.00
2022-10-01T05:23:24.060Z,436.00
2022-10-01T05:24:24.211Z,437.00
2022-10-01T05:25:25.918Z,435.00
2022-10-01T05:26:24.406Z,433.00
2022-10-01T05:27:26.112Z,429.00
2022-10-01T05:28:24.766Z,430.00
2022-10-01T05:29:24.848Z,431.00
2022-10-01T05:30:25.002Z,433.00
2022-10-01T05:31:25.182Z,435.00
2022-10-01T05:32:26.879Z,437.00
2022-10-01T05:33:25.493Z,435.00
2022-10-01T05:34:25.639Z,433.00
2022-10-01T05:35:25.788Z,436.00
2022-10-01T05:36:25.936Z,435.00
2022-10-01T05:37:27.656Z,437.00
2022-10-01T05:38:27.209Z,438.00
2022-10-01T05:39:27.377Z,438.00
2022-10-01T05:40:26.506Z,440.00
2022-10-01T05:41:27.597Z,439.00
2022-10-01T05:42:26.775Z,439.00
2022-10-01T05:43:28.499Z,438.00
2022-10-01T05:44:27.094Z,437.00
2022-10-01T05:45:27.315Z,435.00
2022-10-01T05:46:28.354Z,438.00
2022-10-01T05:47:27.525Z,435.00
2022-10-01T05:48:29.307Z,435.00
2022-10-01T05:49:29.478Z,433.00
2022-10-01T05:50:27.953Z,435.00
2022-10-01T05:51:28.085Z,434.00
2022-10-01T05:52:28.248Z,432.00
2022-10-01T05:53:28.424Z,433.00
2022-10-01T05:54:28.524Z,434.00
2022-10-01T05:55:30.254Z,433.00
2022-10-01T05:56:28.844Z,433.00
2022-10-01T05:57:28.936Z,431.00
2022-10-01T05:58:29.075Z,431.00
2022-10-01T05:59:31.829Z,435.00
2022-10-01T06:00:29.552Z,438.00
2022-10-01T06:01:31.204Z,440.00
2022-10-01T06:02:31.351Z,441.00
2022-10-01T06:03:29.760Z,441.00
2022-10-01T06:04:29.844Z,441.00
2022-10-01T06:05:29.984Z,441.00
2022-10-01T06:06:30.156Z,442.00
2022-10-01T06:07:32.137Z,441.00
2022-10-01T06:08:30.424Z,438.00
2022-10-01T06:09:32.332Z,437.00
2022-10-01T06:10:33.361Z,438.00
2022-10-01T06:11:30.973Z,436.00
2022-10-01T06:12:32.544Z,435.00
2022-10-01T06:13:32.792Z,434.00
2022-10-01T06:14:31.342Z,435.00
2022-10-01T06:15:32.961Z,433.00
2022-10-01T06:16:31.613Z,430.00
2022-10-01T06:17:34.744Z,429.00
2022-10-01T06:18:33.561Z,432.00
2022-10-01T06:19:33.752Z,435.00
2022-10-01T06:20:32.133Z,435.00
2022-10-01T06:21:32.702Z,438.00
2022-10-01T06:22:35.430Z,439.00
2022-10-01T06:23:32.570Z,439.00
2022-10-01T06:24:34.282Z,440.00
2022-10-01T06:25:32.819Z,439.00
2022-10-01T06:26:34.541Z,440.00
2022-10-01T06:27:33.130Z,440.00
2022-10-01T06:28:33.315Z,443.00
2022-10-01T06:29:35.004Z,443.00
2022-10-01T06:30:35.228Z,443.00
2022-10-01T06:31:33.972Z,443.00
2022-10-01T06:32:35.086Z,444.00
2022-10-01T06:33:33.898Z,446.00
2022-10-01T06:34:34.009Z,443.00
2022-10-01T06:35:35.758Z,440.00
2022-10-01T06:36:35.959Z,438.00
2022-10-01T06:37:34.379Z,439.00
2022-10-01T06:38:36.219Z,439.00
2022-10-01T06:39:35.599Z,441.00
2022-10-01T06:40:36.526Z,441.00
2022-10-01T06:41:35.394Z,440.00
2022-10-01T06:42:38.146Z,438.00
2022-10-01T06:43:35.283Z,436.00
2022-10-01T06:44:37.933Z,435.00
2022-10-01T06:45:36.550Z,436.00
2022-10-01T06:46:38.257Z,436.00
2022-10-01T06:47:35.867Z,437.00
2022-10-01T06:48:38.527Z,438.00
2022-10-01T06:49:36.937Z,438.00
2022-10-01T06:50:39.277Z,440.00
2022-10-01T06:51:37.261Z,437.00
2022-10-01T06:52:39.637Z,435.00
2022-10-01T06:53:39.879Z,436.00
2022-10-01T06:54:37.736Z,435.00
2022-10-01T06:55:39.605Z,436.00
2022-10-01T06:56:39.099Z,434.00
2022-10-01T06:57:37.245Z,434.00
2022-10-01T06:58:38.961Z,434.00
2022-10-01T06:59:39.202Z,436.00
2022-10-01T07:00:38.483Z,436.00
2022-10-01T07:01:39.676Z,436.00
2022-10-01T07:02:38.828Z,434.00
2022-10-01T07:03:40.699Z,432.00
2022-10-01T07:04:39.085Z,433.00
2022-10-01T07:05:41.004Z,432.00
2022-10-01T07:06:38.498Z,432.00
2022-10-01T07:07:40.245Z,433.00
2022-10-01T07:08:40.461Z,431.00
2022-10-01T07:09:42.142Z,433.00
2022-10-01T07:10:39.136Z,433.00
2022-10-01T07:11:40.853Z,438.00
2022-10-01T07:12:41.054Z,439.00
2022-10-01T07:13:41.293Z,437.00
2022-10-01T07:14:41.524Z,439.00
2022-10-01T07:15:43.223Z,440.00
2022-10-01T07:16:41.574Z,439.00
2022-10-01T07:17:42.712Z,436.00
2022-10-01T07:18:42.093Z,435.00
2022-10-01T07:19:43.705Z,439.00
2022-10-01T07:20:40.504Z,436.00
2022-10-01T07:21:42.573Z,439.00
2022-10-01T07:22:43.944Z,439.00
2022-10-01T07:23:41.612Z,441.00
2022-10-01T07:24:41.772Z,439.00
2022-10-01T07:25:41.092Z,440.00
2022-10-01T07:26:41.269Z,442.00
2022-10-01T07:27:43.993Z,441.00
2022-10-01T07:28:44.673Z,442.00
2022-10-01T07:29:41.633Z,441.00
2022-10-01T07:30:41.730Z,439.00
2022-10-01T07:31:43.517Z,438.00
2022-10-01T07:32:42.799Z,436.00
2022-10-01T07:33:42.959Z,436.00
2022-10-01T07:34:42.381Z,435.00
2022-10-01T07:35:44.300Z,434.00
2022-10-01T07:36:42.776Z,435.00
2022-10-01T07:37:42.833Z,436.00
2022-10-01T07:38:43.001Z,436.00
2022-10-01T07:39:44.694Z,437.00
2022-10-01T07:40:44.929Z,435.00
2022-10-01T07:41:45.164Z,433.00
2022-10-01T07:42:45.360Z,434.00
2022-10-01T07:43:45.590Z,433.00
2022-10-01T07:44:45.304Z,433.00
2022-10-01T07:45:45.541Z,434.00
2022-10-01T07:46:45.799Z,432.00
2022-10-01T07:47:46.041Z,433.00
2022-10-01T07:48:46.284Z,432.00
2022-10-01T07:49:45.990Z,431.00
2022-10-01T07:50:46.210Z,429.00
2022-10-01T07:51:46.466Z,429.00
2022-10-01T07:52:46.672Z,428.00
2022-10-01T07:53:46.889Z,428.00
2022-10-01T07:54:47.108Z,428.00
2022-10-01T07:55:46.847Z,429.00
2022-10-01T07:56:47.089Z,427.00
2022-10-01T07:57:47.328Z,429.00
2022-10-01T07:58:47.551Z,428.00
2022-10-01T07:59:45.881Z,430.00
2022-10-01T08:00:46.639Z,428.00
2022-10-01T08:01:46.963Z,428.00
2022-10-01T08:02:46.283Z,426.00
2022-10-01T08:03:46.407Z,425.00
2022-10-01T08:04:48.127Z,423.00
2022-10-01T08:05:46.723Z,423.00
2022-10-01T08:06:46.839Z,422.00
2022-10-01T08:07:46.983Z,422.00
2022-10-01T08:08:47.118Z,423.00
2022-10-01T08:09:48.848Z,424.00
2022-10-01T08:10:49.056Z,422.00
2022-10-01T08:11:49.304Z,421.00
2022-10-01T08:12:49.525Z,425.00
2022-10-01T08:13:49.754Z,426.00
2022-10-01T08:14:49.466Z,426.00
2022-10-01T08:15:49.726Z,425.00
2022-10-01T08:16:49.984Z,426.00
2022-10-01T08:17:50.144Z,426.00
2022-10-01T08:18:50.365Z,424.00
2022-10-01T08:19:50.596Z,424.00
2022-10-01T08:20:50.314Z,422.00
2022-10-01T08:21:50.544Z,423.00
2022-10-01T08:22:50.755Z,424.00
2022-10-01T08:23:50.996Z,422.00
2022-10-01T08:24:51.259Z,422.00
2022-10-01T08:25:52.894Z,424.00
2022-10-01T08:26:51.182Z,426.00
2022-10-01T08:27:51.625Z,425.00
2022-10-01T08:28:51.643Z,426.00
2022-10-01T08:29:51.874Z,428.00
2022-10-01T08:30:50.098Z,431.00
2022-10-01T08:31:50.250Z,433.00
2022-10-01T08:32:50.344Z,433.00
2022-10-01T08:33:50.494Z,433.00
2022-10-01T08:34:55.922Z,434.00
2022-10-01T08:35:53.334Z,434.00
2022-10-01T08:36:50.934Z,434.00
2022-10-01T08:37:51.034Z,433.00
2022-10-01T08:38:52.110Z,432.00
2022-10-01T08:39:51.253Z,430.00
2022-10-01T08:40:52.982Z,431.00
2022-10-01T08:41:51.453Z,432.00
2022-10-01T08:42:52.464Z,433.00
2022-10-01T08:43:54.365Z,433.00
2022-10-01T08:44:51.921Z,431.00
2022-10-01T08:45:53.755Z,432.00
2022-10-01T08:46:52.203Z,431.00
2022-10-01T08:47:55.402Z,433.00
2022-10-01T08:48:56.827Z,434.00
2022-10-01T08:49:54.252Z,432.00
2022-10-01T08:50:52.741Z,429.00
2022-10-01T08:51:52.851Z,429.00
2022-10-01T08:52:54.591Z,429.00
2022-10-01T08:53:53.073Z,428.00
2022-10-01T08:54:53.220Z,425.00
2022-10-01T08:55:53.380Z,426.00
2022-10-01T08:56:55.120Z,428.00
2022-10-01T08:57:53.679Z,428.00
2022-10-01T08:58:54.510Z,429.00
2022-10-01T08:59:53.869Z,429.00
2022-10-01T09:00:54.625Z,429.00
2022-10-01T09:01:54.899Z,430.00
2022-10-01T09:02:54.329Z,430.00
2022-10-01T09:03:56.069Z,432.00
2022-10-01T09:05:01.059Z,431.00
2022-10-01T09:05:58.969Z,429.00
2022-10-01T09:06:56.828Z,429.00
2022-10-01T09:07:56.998Z,428.00
2022-10-01T09:08:56.738Z,428.00
2022-10-01T09:09:57.058Z,428.00
2022-10-01T09:10:57.171Z,430.00
2022-10-01T09:11:57.437Z,432.00
2022-10-01T09:12:57.156Z,434.00
2022-10-01T09:13:58.347Z,434.00
2022-10-01T09:14:56.787Z,433.00
2022-10-01T09:15:56.717Z,432.00
2022-10-01T09:16:57.705Z,434.00
2022-10-01T09:17:57.927Z,434.00
2022-10-01T09:18:57.197Z,436.00
2022-10-01T09:19:58.098Z,436.00
2022-10-01T09:20:57.517Z,433.00
2022-10-01T09:21:57.678Z,433.00
2022-10-01T09:22:57.836Z,434.00
2022-10-01T09:23:57.998Z,436.00
2022-10-01T09:24:58.887Z,439.00
2022-10-01T09:25:58.316Z,438.00
2022-10-01T09:26:58.476Z,434.00
2022-10-01T09:27:58.662Z,432.00
2022-10-01T09:28:58.536Z,433.00
2022-10-01T09:29:59.486Z,433.00
2022-10-01T09:30:59.715Z,431.00
2022-10-01T09:31:59.984Z,431.00
2022-10-01T09:32:58.269Z,430.00
2022-10-01T09:33:58.365Z,432.00
2022-10-01T09:35:03.461Z,432.00
2022-10-01T09:36:01.234Z,433.00
2022-10-01T09:36:58.794Z,431.00
2022-10-01T09:38:00.536Z,431.00
2022-10-01T09:38:59.045Z,432.00
2022-10-01T09:39:59.200Z,431.00
2022-10-01T09:40:59.270Z,432.00
2022-10-01T09:41:59.417Z,428.00
2022-10-01T09:43:01.136Z,427.00
2022-10-01T09:43:59.723Z,428.00
2022-10-01T09:44:59.875Z,430.00
2022-10-01T09:46:01.661Z,431.00
2022-10-01T09:47:00.916Z,431.00
2022-10-01T09:48:01.063Z,430.00
2022-10-01T09:49:00.483Z,428.00
2022-10-01T09:50:02.228Z,429.00
2022-10-01T09:51:02.436Z,428.00
2022-10-01T09:52:01.710Z,425.00
2022-10-01T09:53:02.623Z,424.00
2022-10-01T09:54:01.162Z,426.00
2022-10-01T09:55:02.902Z,427.00
2022-10-01T09:56:02.351Z,428.00
2022-10-01T09:57:02.514Z,431.00
2022-10-01T09:58:01.712Z,430.00
2022-10-01T09:59:01.865Z,430.00
2022-10-01T10:00:03.592Z,431.00
2022-10-01T10:01:02.121Z,430.00
2022-10-01T10:02:02.828Z,429.00
2022-10-01T10:13:17.096Z,457.00
2022-10-01T10:14:18.135Z,440.00
2022-10-01T10:15:18.203Z,444.00
2022-10-01T10:16:18.370Z,444.00
2022-10-01T10:17:20.154Z,443.00
2022-10-01T10:18:23.691Z,439.00
2022-10-01T10:19:20.645Z,435.00
2022-10-01T10:20:18.735Z,434.00
2022-10-01T10:21:19.633Z,433.00
2022-10-01T10:22:19.054Z,434.00
2022-10-01T10:23:19.214Z,435.00
2022-10-01T10:24:19.373Z,435.00
2022-10-01T10:25:19.533Z,437.00
2022-10-01T10:26:20.443Z,437.00
2022-10-01T10:27:19.856Z,436.00
2022-10-01T10:28:20.082Z,436.00
2022-10-01T10:29:20.135Z,436.00
2022-10-01T10:30:20.093Z,438.00
2022-10-01T10:31:22.066Z,439.00
2022-10-01T10:32:20.423Z,440.00
2022-10-01T10:33:20.552Z,443.00
2022-10-01T10:34:21.477Z,443.00
2022-10-01T10:35:20.073Z,445.00
2022-10-01T10:36:22.760Z,444.00
2022-10-01T10:37:21.192Z,443.00
2022-10-01T10:38:20.542Z,441.00
2022-10-01T10:39:22.559Z,440.00
2022-10-01T10:40:28.458Z,439.00
2022-10-01T10:41:23.764Z,436.00
2022-10-01T10:42:21.039Z,436.00
2022-10-01T10:43:21.269Z,433.00
2022-10-01T10:44:22.072Z,434.00
2022-10-01T10:45:22.235Z,437.00
2022-10-01T10:46:22.410Z,438.00
2022-10-01T10:47:24.819Z,437.00
2022-10-01T10:48:22.001Z,435.00
2022-10-01T10:49:22.869Z,434.00
2022-10-01T10:50:24.755Z,433.00
2022-10-01T10:51:22.311Z,433.00
2022-10-01T10:52:22.483Z,428.00
2022-10-01T10:53:24.528Z,427.00
2022-10-01T10:54:22.732Z,427.00
2022-10-01T10:55:22.835Z,424.00
2022-10-01T10:56:23.097Z,424.00
2022-10-01T10:57:23.348Z,423.00
2022-10-01T10:58:24.889Z,422.00
2022-10-01T10:59:23.440Z,421.00
2022-10-01T11:00:25.161Z,424.00
2022-10-01T11:01:23.783Z,425.00
2022-10-01T11:02:23.985Z,424.00
2022-10-01T11:03:23.971Z,426.00
2022-10-01T11:04:24.120Z,426.00
2022-10-01T11:05:25.857Z,428.00
2022-10-01T11:06:26.076Z,428.00
2022-10-01T11:07:24.562Z,427.00
2022-10-01T11:08:24.658Z,424.00
2022-10-01T11:09:24.808Z,425.00
2022-10-01T11:10:25.711Z,425.00
2022-10-01T11:11:27.662Z,425.00
2022-10-01T11:12:25.276Z,424.00
2022-10-01T11:13:27.932Z,425.00
2022-10-01T11:14:25.506Z,425.00
2022-10-01T11:15:25.657Z,426.00
2022-10-01T11:16:28.820Z,425.00
2022-10-01T11:17:25.998Z,425.00
2022-10-01T11:18:27.157Z,427.00
2022-10-01T11:19:26.186Z,425.00
2022-10-01T11:20:28.907Z,424.00
2022-10-01T11:21:29.107Z,424.00
2022-10-01T11:22:26.559Z,423.00
2022-10-01T11:23:27.783Z,423.00
2022-10-01T11:24:29.287Z,422.00
2022-10-01T11:25:26.962Z,423.00
2022-10-01T11:26:28.676Z,424.00
2022-10-01T11:27:27.270Z,425.00
2022-10-01T11:28:29.045Z,427.00
2022-10-01T11:29:29.226Z,428.00
2022-10-01T11:30:29.445Z,428.00
2022-10-01T11:31:30.736Z,428.00
2022-10-01T11:32:28.015Z,426.00
2022-10-01T11:33:29.235Z,427.00
2022-10-01T11:34:28.304Z,428.00
2022-10-01T11:35:30.914Z,430.00
2022-10-01T11:36:28.645Z,432.00
2022-10-01T11:37:31.324Z,432.00
2022-10-01T11:38:30.605Z,431.00
2022-10-01T11:39:30.345Z,430.00
2022-10-01T11:40:31.055Z,430.00
2022-10-01T11:41:29.238Z,430.00
2022-10-01T11:42:31.346Z,430.00
2022-10-01T11:43:29.484Z,429.00
2022-10-01T11:44:31.193Z,429.00
2022-10-01T11:45:29.782Z,429.00
2022-10-01T11:46:32.852Z,427.00
2022-10-01T11:47:30.083Z,426.00
2022-10-01T11:48:31.824Z,426.00
2022-10-01T11:49:32.293Z,426.00
2022-10-01T11:50:37.269Z,425.00
2022-10-01T11:51:33.553Z,425.00
2022-10-01T11:52:31.727Z,423.00
2022-10-01T11:53:31.843Z,423.00
2022-10-01T11:54:31.031Z,421.00
2022-10-01T11:55:33.683Z,423.00
2022-10-01T11:56:33.269Z,424.00
2022-10-01T11:57:31.451Z,426.00
2022-10-01T11:58:31.613Z,421.00
2022-10-01T11:59:31.769Z,423.00
2022-10-01T12:00:33.484Z,426.00
2022-10-01T12:01:33.786Z,427.00
2022-10-01T12:02:32.233Z,429.00
2022-10-01T12:03:32.282Z,427.00
2022-10-01T12:04:32.421Z,427.00
2022-10-01T12:05:33.717Z,427.00
2022-10-01T12:06:34.105Z,424.00
2022-10-01T12:07:32.889Z,423.00
2022-10-01T12:08:33.020Z,423.00
2022-10-01T12:09:33.171Z,423.00
2022-10-01T12:10:34.385Z,423.00
2022-10-01T12:11:33.461Z,426.00
2022-10-01T12:12:33.593Z,424.00
2022-10-01T12:13:33.761Z,424.00
2022-10-01T12:14:33.905Z,423.00
2022-10-01T12:15:35.061Z,424.00
2022-10-01T12:16:36.072Z,423.00
2022-10-01T12:17:34.341Z,423.00
2022-10-01T12:18:35.491Z,423.00
2022-10-01T12:19:34.611Z,425.00
2022-10-01T12:20:35.764Z,427.00
2022-10-01T12:21:36.488Z,428.00
2022-10-01T12:22:36.704Z,427.00
2022-10-01T12:23:35.161Z,425.00
2022-10-01T12:24:35.321Z,424.00
2022-10-01T12:25:36.540Z,423.00
2022-10-01T12:26:36.039Z,422.00
2022-10-01T12:27:36.749Z,423.00
2022-10-01T12:28:36.971Z,423.00
2022-10-01T12:29:36.978Z,423.00
2022-10-01T12:30:37.099Z,423.00
2022-10-01T12:31:36.301Z,424.00
2022-10-01T12:32:36.338Z,427.00
2022-10-01T12:33:37.560Z,428.00
2022-10-01T12:34:36.620Z,429.00
2022-10-01T12:35:38.341Z,429.00
2022-10-01T12:36:37.360Z,427.00
2022-10-01T12:37:37.028Z,426.00
2022-10-01T12:38:37.187Z,424.00
2022-10-01T12:39:37.339Z,423.00
2022-10-01T12:40:38.558Z,422.00
2022-10-01T12:41:38.782Z,423.00
2022-10-01T12:42:37.747Z,425.00
2022-10-01T12:43:37.886Z,425.00
2022-10-01T12:44:38.052Z,426.00
2022-10-01T12:45:38.187Z,426.00
2022-10-01T12:46:39.627Z,429.00
2022-10-01T12:47:40.135Z,429.00
2022-10-01T12:48:39.617Z,429.00
2022-10-01T12:49:38.736Z,428.00
2022-10-01T12:50:39.886Z,427.00
2022-10-01T12:51:40.040Z,428.00
2022-10-01T12:52:40.757Z,428.00
2022-10-01T12:53:40.234Z,427.00
2022-10-01T12:54:39.356Z,428.00
2022-10-01T12:55:40.575Z,428.00
2022-10-01T12:56:40.605Z,428.00
2022-10-01T12:57:39.737Z,428.00
2022-10-01T12:58:39.875Z,427.00
2022-10-01T12:59:40.060Z,425.00
2022-10-01T13:00:41.896Z,428.00
2022-10-01T13:01:40.403Z,428.00
2022-10-01T13:02:42.095Z,429.00
2022-10-01T13:03:40.581Z,428.00
2022-10-01T13:04:40.714Z,426.00
2022-10-01T13:05:40.876Z,429.00
2022-10-01T13:06:41.058Z,431.00
2022-10-01T13:07:42.784Z,433.00
2022-10-01T13:08:41.325Z,433.00
2022-10-01T13:09:48.032Z,433.00
2022-10-01T13:10:42.635Z,434.00
2022-10-01T13:11:43.407Z,437.00
2022-10-01T13:12:41.916Z,436.00
2022-10-01T13:13:43.645Z,435.00
2022-10-01T13:14:42.167Z,434.00
2022-10-01T13:15:42.367Z,431.00
2022-10-01T13:16:42.552Z,432.00
2022-10-01T13:17:44.214Z,431.00
2022-10-01T13:18:42.743Z,429.00
2022-10-01T13:19:42.876Z,432.00
2022-10-01T13:20:43.043Z,429.00
2022-10-01T13:21:43.192Z,429.00
2022-10-01T13:22:44.932Z,428.00
2022-10-01T13:23:44.493Z,427.00
2022-10-01T13:24:43.615Z,430.00
2022-10-01T13:25:44.783Z,432.00
2022-10-01T13:26:43.915Z,435.00
2022-10-01T13:27:45.155Z,437.00
2022-10-01T13:28:45.867Z,437.00
2022-10-01T13:29:44.351Z,437.00
2022-10-01T13:30:46.146Z,436.00
2022-10-01T13:31:44.703Z,436.00
2022-10-01T13:32:44.767Z,435.00
2022-10-01T13:33:44.912Z,432.00
2022-10-01T13:34:45.100Z,435.00
2022-10-01T13:35:46.333Z,435.00
2022-10-01T13:36:45.301Z,435.00
2022-10-01T13:37:45.451Z,433.00
2022-10-01T13:38:47.180Z,435.00
2022-10-01T13:39:45.759Z,435.00
2022-10-01T13:40:45.912Z,437.00
2022-10-01T13:41:46.087Z,436.00
2022-10-01T13:42:46.211Z,434.00
2022-10-01T13:43:47.431Z,432.00
2022-10-01T13:44:46.520Z,428.00
2022-10-01T13:45:46.686Z,429.00
2022-10-01T13:46:46.961Z,430.00
2022-10-01T13:47:48.551Z,430.00
2022-10-01T13:48:47.144Z,432.00
2022-10-01T13:49:47.262Z,436.00
2022-10-01T13:50:47.390Z,439.00
2022-10-01T13:51:47.559Z,440.00
2022-10-01T13:52:49.319Z,438.00
2022-10-01T13:53:48.880Z,440.00
2022-10-01T13:54:48.019Z,438.00
2022-10-01T13:55:48.196Z,438.00
2022-10-01T13:56:48.309Z,438.00
2022-10-01T13:57:48.460Z,439.00
2022-10-01T13:58:50.190Z,435.00
2022-10-01T13:59:48.699Z,434.00
2022-10-01T14:00:48.856Z,434.00
2022-10-01T14:01:49.056Z,433.00
2022-10-01T14:02:49.158Z,434.00
2022-10-01T14:03:50.879Z,433.00
2022-10-01T14:04:50.307Z,432.00
2022-10-01T14:05:50.507Z,429.00
2022-10-01T14:06:49.648Z,429.00
2022-10-01T14:07:51.379Z,431.00
2022-10-01T14:08:51.597Z,431.00
2022-10-01T14:09:50.088Z,432.00
2022-10-01T14:10:51.189Z,430.00
2022-10-01T14:11:50.330Z,431.00
2022-10-01T14:12:51.497Z,431.00
2022-10-01T14:13:52.219Z,428.00
2022-10-01T14:14:50.776Z,428.00
2022-10-01T14:15:50.971Z,430.00
2022-10-01T14:16:51.056Z,430.00
2022-10-01T14:17:51.176Z,429.00
2022-10-01T14:18:52.928Z,430.00
2022-10-01T14:19:51.456Z,430.00
2022-10-01T14:20:51.596Z,427.00
2022-10-01T14:21:51.767Z,427.00
2022-10-01T14:22:51.915Z,429.00
2022-10-01T14:23:53.657Z,431.00
2022-10-01T14:24:52.126Z,432.00
2022-10-01T14:25:53.767Z,431.00
2022-10-01T14:26:54.037Z,434.00
2022-10-01T14:27:52.601Z,435.00
2022-10-01T14:28:53.695Z,436.00
2022-10-01T14:29:54.457Z,437.00
2022-10-01T14:30:54.017Z,440.00
2022-10-01T14:31:53.125Z,440.00
2022-10-01T14:32:53.284Z,442.00
2022-10-01T14:33:54.395Z,443.00
2022-10-01T14:34:55.106Z,442.00
2022-10-01T14:35:53.634Z,443.00
2022-10-01T14:36:55.374Z,442.00
2022-10-01T14:37:53.890Z,441.00
2022-10-01T14:38:54.027Z,440.00
2022-10-01T14:39:55.756Z,438.00
2022-10-01T14:40:54.297Z,435.00
2022-10-01T14:41:54.432Z,431.00
2022-10-01T14:42:56.158Z,427.00
2022-10-01T14:43:54.733Z,424.00
2022-10-01T14:44:54.874Z,422.00
2022-10-01T14:45:56.706Z,423.00
2022-10-01T14:46:55.239Z,425.00
2022-10-01T14:47:56.884Z,424.00
2022-10-01T14:48:56.392Z,425.00
2022-10-01T14:49:55.586Z,425.00
2022-10-01T14:50:55.723Z,425.00
2022-10-01T14:51:57.433Z,423.00
2022-10-01T14:52:56.022Z,422.00
2022-10-01T14:53:57.175Z,423.00
2022-10-01T14:54:56.307Z,422.00
2022-10-01T14:55:58.016Z,422.00
2022-10-01T14:56:56.594Z,423.00
2022-10-01T14:57:56.745Z,427.00
2022-10-01T14:58:56.900Z,428.00
2022-10-01T14:59:58.113Z,426.00
2022-10-01T15:00:57.203Z,426.00
2022-10-01T15:01:57.362Z,427.00
2022-10-01T15:02:58.462Z,426.00
2022-10-01T15:03:57.729Z,424.00
2022-10-01T15:04:59.430Z,424.00
2022-10-01T15:05:59.622Z,425.00
2022-10-01T15:06:57.982Z,424.00
2022-10-01T15:07:58.123Z,422.00
2022-10-01T15:08:58.272Z,420.00
2022-10-01T15:09:58.421Z,419.00
2022-10-01T15:11:00.170Z,418.00
2022-10-01T15:12:00.381Z,419.00
2022-10-01T15:12:58.880Z,418.00
2022-10-01T15:13:58.970Z,419.00
2022-10-01T15:15:00.105Z,420.00
2022-10-01T15:16:00.924Z,422.00
2022-10-01T15:17:01.099Z,422.00
2022-10-01T15:18:01.319Z,423.00
2022-10-01T15:18:59.644Z,423.00
2022-10-01T15:19:59.781Z,423.00
2022-10-01T15:21:01.499Z,421.00
2022-10-01T15:22:00.133Z,419.00
2022-10-01T15:23:01.690Z,421.00
2022-10-01T15:24:00.380Z,420.00
2022-10-01T15:25:00.528Z,420.00
2022-10-01T15:26:02.266Z,422.00
2022-10-01T15:27:02.490Z,420.00
2022-10-01T15:28:01.036Z,419.00
2022-10-01T15:29:02.049Z,419.00
2022-10-01T15:30:02.218Z,418.00
2022-10-01T15:31:03.003Z,418.00
2022-10-01T15:32:03.188Z,417.00
2022-10-01T15:33:01.667Z,418.00
2022-10-01T15:34:03.403Z,420.00
2022-10-01T15:35:01.991Z,420.00
2022-10-01T15:36:03.197Z,420.00
2022-10-01T15:37:03.929Z,422.00
2022-10-01T15:38:02.401Z,422.00
2022-10-01T15:39:02.548Z,424.00
2022-10-01T15:40:04.775Z,425.00
2022-10-01T15:41:26.665Z,427.00
2022-10-01T15:42:04.007Z,426.00
2022-10-01T15:43:04.758Z,426.00
2022-10-01T15:44:03.313Z,426.00
2022-10-01T15:45:03.429Z,424.00
2022-10-01T15:46:05.228Z,424.00
2022-10-01T15:47:05.377Z,424.00
2022-10-01T15:48:05.596Z,425.00
2022-10-01T15:49:05.836Z,425.00
2022-10-01T15:50:04.106Z,424.00
2022-10-01T15:51:04.257Z,424.00
2022-10-01T15:52:04.407Z,426.00
2022-10-01T15:53:04.545Z,428.00
2022-10-01T15:54:06.285Z,428.00
2022-10-01T15:55:04.867Z,428.00
2022-10-01T15:56:05.026Z,426.00
2022-10-01T15:57:06.734Z,427.00
2022-10-01T15:58:06.324Z,427.00
2022-10-01T15:59:05.518Z,428.00
2022-10-01T16:00:06.534Z,430.00
2022-10-01T16:01:07.382Z,429.00
2022-10-01T16:12:31.222Z,479.00
2022-10-01T16:13:31.180Z,445.00
2022-10-01T16:14:31.341Z,443.00
2022-10-01T16:15:32.240Z,444.00
2022-10-01T16:16:31.707Z,445.00
2022-10-01T16:17:31.805Z,443.00
2022-10-01T16:18:32.466Z,443.00
2022-10-01T16:19:31.880Z,444.00
2022-10-01T16:20:32.804Z,443.00
2022-10-01T16:21:32.431Z,441.00
2022-10-01T16:22:32.368Z,438.00
2022-10-01T16:23:33.271Z,441.00
2022-10-01T16:24:32.799Z,442.00
2022-10-01T16:25:32.841Z,438.00
2022-10-01T16:26:32.436Z,439.00
2022-10-01T16:27:33.874Z,439.00
2022-10-01T16:28:32.349Z,439.00
2022-10-01T16:29:33.439Z,438.00
2022-10-01T16:30:32.649Z,438.00
2022-10-01T16:31:34.388Z,437.00
2022-10-01T16:32:32.882Z,435.00
2022-10-01T16:33:33.086Z,434.00
2022-10-01T16:34:33.198Z,435.00
2022-10-01T16:35:33.347Z,434.00
2022-10-01T16:36:35.416Z,433.00
2022-10-01T16:37:35.313Z,430.00
2022-10-01T16:38:33.768Z,430.00
2022-10-01T16:39:33.892Z,431.00
2022-10-01T16:40:34.031Z,433.00
2022-10-01T16:41:34.171Z,434.00
2022-10-01T16:42:35.877Z,432.00
2022-10-01T16:43:36.143Z,433.00
2022-10-01T16:44:35.379Z,434.00
2022-10-01T16:45:35.733Z,435.00
2022-10-01T16:46:36.646Z,436.00
2022-10-01T16:47:41.611Z,438.00
2022-10-01T16:48:36.911Z,437.00
2022-10-01T16:49:36.174Z,437.00